createdAt,value
2018-02-08T00:01:04.597Z,13.77
2018-02-08T00:03:30.983Z,13.03
2018-02-08T00:05:57.344Z,13.97
2018-02-08T00:08:23.876Z,11.70
2018-02-08T00:10:50.275Z,14.17
2018-02-08T00:13:16.640Z,12.67
2018-02-08T00:15:43.073Z,14.70
2018-02-08T00:18:09.559Z,14.87
2018-02-08T00:20:36.116Z,19.13
2018-02-08T00:23:02.567Z,14.30
2018-02-08T00:25:28.979Z,16.97
2018-02-08T00:27:55.537Z,12.63
2018-02-08T00:30:21.963Z,13.57
2018-02-08T00:32:48.384Z,15.97
2018-02-08T00:35:14.942Z,18.53
2018-02-08T00:37:41.390Z,20.73
2018-02-08T00:40:07.794Z,14.03
2018-02-08T00:42:34.174Z,17.07
2018-02-08T00:45:00.589Z,19.97
2018-02-08T00:47:26.975Z,15.63
2018-02-08T00:49:53.418Z,19.63
2018-02-08T00:52:19.848Z,19.43
2018-02-08T00:54:46.197Z,17.67
2018-02-08T00:57:12.551Z,17.67
2018-02-08T00:59:39.018Z,17.80
2018-02-08T01:02:05.372Z,16.47
2018-02-08T01:04:31.701Z,21.03
2018-02-08T01:06:58.139Z,21.40
2018-02-08T01:09:24.595Z,21.50
2018-02-08T01:11:50.960Z,19.50
2018-02-08T01:14:17.372Z,16.00
2018-02-08T01:16:43.790Z,11.90
2018-02-08T01:19:10.226Z,12.77
2018-02-08T01:21:36.633Z,11.00
2018-02-08T01:24:02.964Z,12.27
2018-02-08T01:26:29.374Z,16.77
2018-02-08T01:28:55.739Z,19.13
2018-02-08T01:31:22.122Z,16.90
2018-02-08T01:33:48.478Z,16.27
2018-02-08T01:36:14.901Z,16.80
2018-02-08T01:38:41.345Z,18.07
2018-02-08T01:41:07.702Z,17.47
2018-02-08T01:43:34.091Z,20.90
2018-02-08T01:46:00.428Z,18.67
2018-02-08T01:48:26.809Z,23.20
2018-02-08T01:50:53.202Z,26.30
2018-02-08T01:53:19.537Z,18.77
2018-02-08T01:55:45.930Z,23.07
2018-02-08T01:58:12.390Z,31.33
2018-02-08T02:00:38.772Z,23.83
2018-02-08T02:03:05.108Z,23.03
2018-02-08T02:05:31.493Z,24.43
2018-02-08T02:07:57.861Z,26.57
2018-02-08T02:10:24.203Z,26.47
2018-02-08T02:12:50.613Z,25.03
2018-02-08T02:15:17.009Z,28.70
2018-02-08T02:17:43.364Z,44.97
2018-02-08T02:20:09.881Z,15.87
2018-02-08T02:22:36.198Z,25.87
2018-02-08T02:25:02.578Z,31.47
2018-02-08T02:27:28.956Z,25.30
2018-02-08T02:29:55.735Z,22.97
2018-02-08T02:32:22.179Z,21.53
2018-02-08T02:34:48.562Z,24.67
2018-02-08T02:37:14.911Z,14.73
2018-02-08T02:39:41.272Z,16.90
2018-02-08T02:42:07.673Z,21.77
2018-02-08T02:44:34.043Z,21.53
2018-02-08T02:47:00.355Z,14.90
2018-02-08T02:49:26.911Z,16.70
2018-02-08T02:51:53.249Z,14.37
2018-02-08T02:54:19.653Z,18.17
2018-02-08T02:56:46.055Z,16.47
2018-02-08T02:59:12.495Z,19.97
2018-02-08T03:01:38.856Z,17.93
2018-02-08T03:04:05.288Z,13.27
2018-02-08T03:06:31.640Z,13.70
2018-02-08T03:08:58.079Z,14.50
2018-02-08T03:11:24.452Z,14.53
2018-02-08T03:13:50.806Z,17.30
2018-02-08T03:16:17.163Z,15.27
2018-02-08T03:18:43.687Z,19.90
2018-02-08T03:21:10.035Z,18.30
2018-02-08T03:23:36.421Z,22.00
2018-02-08T03:26:02.841Z,22.57
2018-02-08T03:28:29.239Z,30.07
2018-02-08T03:30:59.617Z,32.27
2018-02-08T03:33:26.041Z,24.70
2018-02-08T03:35:52.414Z,28.97
2018-02-08T03:38:18.944Z,17.40
2018-02-08T03:40:45.357Z,19.63
2018-02-08T03:43:11.729Z,21.77
2018-02-08T03:45:38.160Z,24.70
2018-02-08T03:48:04.557Z,22.17
2018-02-08T03:50:30.907Z,19.83
2018-02-08T03:52:57.246Z,13.73
2018-02-08T03:55:23.618Z,18.03
2018-02-08T03:57:49.968Z,14.70
2018-02-08T04:00:16.366Z,13.57
2018-02-08T04:02:42.788Z,12.00
2018-02-08T04:05:09.126Z,13.43
2018-02-08T04:07:35.675Z,11.20
2018-02-08T04:10:02.146Z,12.63
2018-02-08T04:12:28.492Z,15.03
2018-02-08T04:14:54.849Z,14.83
2018-02-08T04:17:21.291Z,17.03
2018-02-08T04:19:47.799Z,12.10
2018-02-08T04:22:14.153Z,12.27
2018-02-08T04:24:40.549Z,13.67
2018-02-08T04:27:06.927Z,20.50
2018-02-08T04:29:33.384Z,21.47
2018-02-08T04:31:59.845Z,18.23
2018-02-08T04:34:26.323Z,17.67
2018-02-08T04:36:52.673Z,19.47
2018-02-08T04:39:31.307Z,15.43
2018-02-08T04:42:09.836Z,18.27
2018-02-08T04:44:48.406Z,18.93
2018-02-08T04:47:26.781Z,28.73
2018-02-08T04:49:53.235Z,15.63
2018-02-08T04:52:19.592Z,14.40
2018-02-08T04:54:45.982Z,12.77
2018-02-08T04:57:12.384Z,16.07
2018-02-08T04:59:38.811Z,13.47
2018-02-08T05:02:11.122Z,11.50
2018-02-08T05:04:37.490Z,14.03
2018-02-08T05:07:03.850Z,16.17
2018-02-08T05:09:30.292Z,14.03
2018-02-08T05:11:56.629Z,15.37
2018-02-08T05:14:23.034Z,10.10
2018-02-08T05:16:49.438Z,12.83
2018-02-08T05:19:15.892Z,12.43
2018-02-08T05:21:42.255Z,13.87
2018-02-08T05:24:08.629Z,15.50
2018-02-08T05:26:34.961Z,12.33
2018-02-08T05:29:01.468Z,12.13
2018-02-08T05:31:27.941Z,11.63
2018-02-08T05:33:54.279Z,17.83
2018-02-08T05:36:20.647Z,17.27
2018-02-08T05:38:47.052Z,12.93
2018-02-08T05:41:13.482Z,19.57
2018-02-08T05:43:39.902Z,17.07
2018-02-08T05:46:06.268Z,13.53
2018-02-08T05:48:32.699Z,15.50
2018-02-08T05:50:59.219Z,15.87
2018-02-08T05:53:25.663Z,20.50
2018-02-08T05:55:52.079Z,71.43
2018-02-08T05:58:18.552Z,59.83
2018-02-08T06:00:45.000Z,63.80
2018-02-08T06:03:11.367Z,44.90
2018-02-08T06:05:37.733Z,13.63
2018-02-08T06:08:04.204Z,32.40
2018-02-08T06:10:30.554Z,181.77
2018-02-08T06:12:56.910Z,68.40
2018-02-08T06:15:23.344Z,267.33
2018-02-08T06:17:49.726Z,87.20
2018-02-08T06:20:16.111Z,155.70
2018-02-08T06:22:42.540Z,55.70
2018-02-08T06:25:08.902Z,123.23
2018-02-08T06:27:35.279Z,159.30
2018-02-08T06:30:01.788Z,48.47
2018-02-08T06:32:28.444Z,103.47
2018-02-08T06:34:55.359Z,132.90
2018-02-08T06:37:21.824Z,41.93
2018-02-08T06:39:48.461Z,23.37
2018-02-08T06:42:14.810Z,138.23
2018-02-08T06:44:41.221Z,154.07
2018-02-08T06:47:07.763Z,43.17
2018-02-08T06:49:34.395Z,41.37
2018-02-08T06:52:00.944Z,88.87
2018-02-08T06:54:27.778Z,98.73
2018-02-08T06:56:54.237Z,123.47
2018-02-08T06:59:22.552Z,152.37
2018-02-08T07:01:49.384Z,39.37
2018-02-08T07:04:15.784Z,34.57
2018-02-08T07:06:42.206Z,33.13
2018-02-08T07:09:08.584Z,33.00
2018-02-08T07:11:34.950Z,64.00
2018-02-08T07:14:01.383Z,71.33
2018-02-08T07:16:27.809Z,162.47
2018-02-08T07:18:54.251Z,55.63
2018-02-08T07:21:20.704Z,173.07
2018-02-08T07:23:47.249Z,148.17
2018-02-08T07:26:13.685Z,250.70
2018-02-08T07:28:40.175Z,246.77
2018-02-08T07:31:06.668Z,105.30
2018-02-08T07:33:33.032Z,106.20
2018-02-08T07:35:59.460Z,109.30
2018-02-08T07:38:25.901Z,20.17
2018-02-08T07:40:52.245Z,124.70
2018-02-08T07:43:18.671Z,90.77
2018-02-08T07:45:45.046Z,267.60
2018-02-08T07:48:11.587Z,157.57
2018-02-08T07:50:38.066Z,66.63
2018-02-08T07:53:04.458Z,125.90
2018-02-08T07:55:30.881Z,95.53
2018-02-08T07:57:57.410Z,146.50
2018-02-08T08:00:23.858Z,68.17
2018-02-08T08:02:50.202Z,140.63
2018-02-08T08:05:16.978Z,89.13
2018-02-08T08:07:43.375Z,259.97
2018-02-08T08:10:09.818Z,87.00
2018-02-08T08:12:36.221Z,90.03
2018-02-08T08:15:02.589Z,115.03
2018-02-08T08:17:28.959Z,53.27
2018-02-08T08:19:55.415Z,182.73
2018-02-08T08:22:21.786Z,183.10
2018-02-08T08:24:48.211Z,77.97
2018-02-08T08:27:14.623Z,61.13
2018-02-08T08:29:41.094Z,98.83
2018-02-08T08:32:07.465Z,71.27
2018-02-08T08:34:33.932Z,99.30
2018-02-08T08:37:00.370Z,59.13
2018-02-08T08:39:26.847Z,121.37
2018-02-08T08:41:53.270Z,100.73
2018-02-08T08:44:19.656Z,323.23
2018-02-08T08:46:46.076Z,115.77
2018-02-08T08:49:12.676Z,81.00
2018-02-08T08:51:39.054Z,49.30
2018-02-08T08:54:05.486Z,124.90
2018-02-08T08:56:31.900Z,198.07
2018-02-08T08:58:58.455Z,124.30
2018-02-08T09:01:24.816Z,75.83
2018-02-08T09:03:51.318Z,70.30
2018-02-08T09:06:17.747Z,89.60
2018-02-08T09:08:44.228Z,69.20
2018-02-08T09:11:10.779Z,24.83
2018-02-08T09:13:37.157Z,58.37
2018-02-08T09:16:03.930Z,183.17
2018-02-08T09:18:30.417Z,86.03
2018-02-08T09:20:56.774Z,68.37
2018-02-08T09:23:23.808Z,77.13
2018-02-08T09:25:50.302Z,73.47
2018-02-08T09:28:17.683Z,52.97
2018-02-08T09:30:44.104Z,117.70
2018-02-08T09:33:10.514Z,101.03
2018-02-08T09:35:36.958Z,47.37
2018-02-08T09:38:03.363Z,108.47
2018-02-08T09:40:29.957Z,120.10
2018-02-08T09:42:56.378Z,56.03
2018-02-08T09:45:23.036Z,89.47
2018-02-08T09:47:49.477Z,75.43
2018-02-08T09:50:15.985Z,57.90
2018-02-08T09:52:42.420Z,56.03
2018-02-08T09:55:08.868Z,65.77
2018-02-08T09:57:35.272Z,33.33
2018-02-08T10:00:01.791Z,35.23
2018-02-08T10:02:28.980Z,45.77
2018-02-08T10:04:55.428Z,28.80
2018-02-08T10:07:21.882Z,34.53
2018-02-08T10:09:48.418Z,32.13
2018-02-08T10:12:14.796Z,28.83
2018-02-08T10:14:41.155Z,19.87
2018-02-08T10:17:08.302Z,10.00
2018-02-08T10:19:34.828Z,7.70
2018-02-08T10:22:01.322Z,12.83
2018-02-08T10:24:27.757Z,13.90
2018-02-08T10:26:54.297Z,11.27
2018-02-08T10:29:20.774Z,16.27
2018-02-08T10:31:47.197Z,12.43
2018-02-08T10:34:13.562Z,10.23
2018-02-08T10:36:40.225Z,9.37
2018-02-08T10:39:06.695Z,8.97
2018-02-08T10:41:33.148Z,10.37
2018-02-08T10:43:59.490Z,7.97
2018-02-08T10:46:25.854Z,9.20
2018-02-08T10:48:53.298Z,13.73
2018-02-08T10:51:19.755Z,9.67
2018-02-08T10:53:46.155Z,8.13
2018-02-08T10:56:12.611Z,12.43
2018-02-08T10:58:39.064Z,8.17
2018-02-08T11:01:05.463Z,9.23
2018-02-08T11:03:31.850Z,10.70
2018-02-08T11:05:58.294Z,12.63
2018-02-08T11:08:24.933Z,12.70
2018-02-08T11:10:51.440Z,14.90
2018-02-08T11:13:18.177Z,10.07
2018-02-08T11:15:44.674Z,10.07
2018-02-08T11:18:11.704Z,11.97
2018-02-08T11:20:38.199Z,6.30
2018-02-08T11:23:04.603Z,8.83
2018-02-08T11:25:30.998Z,8.20
2018-02-08T11:27:57.441Z,7.20
2018-02-08T11:30:23.934Z,11.03
2018-02-08T11:32:50.328Z,6.13
2018-02-08T11:35:16.771Z,9.07
2018-02-08T11:37:43.215Z,6.60
2018-02-08T11:40:09.791Z,10.83
2018-02-08T11:42:36.263Z,8.73
2018-02-08T11:45:02.708Z,8.80
2018-02-08T11:47:29.171Z,9.07
2018-02-08T11:49:55.754Z,5.10
2018-02-08T11:52:22.215Z,6.10
2018-02-08T11:54:49.591Z,5.43
2018-02-08T11:57:16.031Z,8.23
2018-02-08T11:59:42.552Z,5.10
2018-02-08T12:02:09.048Z,4.70
2018-02-08T12:04:35.558Z,8.23
2018-02-08T12:07:02.691Z,7.63
2018-02-08T12:09:30.172Z,6.30
2018-02-08T12:11:57.730Z,7.50
2018-02-08T12:14:24.367Z,5.93
2018-02-08T12:16:50.776Z,6.30
2018-02-08T12:19:17.516Z,6.23
2018-02-08T12:21:44.033Z,4.90
2018-02-08T12:24:11.706Z,5.17
2018-02-08T12:26:38.394Z,4.90
2018-02-08T12:29:04.813Z,7.10
2018-02-08T12:31:31.242Z,11.03
2018-02-08T12:33:57.794Z,6.27
2018-02-08T12:36:24.296Z,2.93
2018-02-08T12:38:50.758Z,4.87
2018-02-08T12:41:17.183Z,4.10
2018-02-08T12:43:43.596Z,5.73
2018-02-08T12:46:09.952Z,5.77
2018-02-08T12:48:36.409Z,3.60
2018-02-08T12:51:02.808Z,7.27
2018-02-08T12:53:29.247Z,4.90
2018-02-08T12:55:55.902Z,4.10
2018-02-08T12:58:22.388Z,4.33
2018-02-08T13:00:48.896Z,3.57
2018-02-08T13:03:15.331Z,7.77
2018-02-08T13:05:42.527Z,4.07
2018-02-08T13:08:08.911Z,6.83
2018-02-08T13:10:35.452Z,4.77
2018-02-08T13:13:01.869Z,5.27
2018-02-08T13:15:28.500Z,4.93
2018-02-08T13:17:55.007Z,6.13
2018-02-08T13:20:21.530Z,6.00
2018-02-08T13:22:48.938Z,3.67
2018-02-08T13:25:15.439Z,5.07
2018-02-08T13:27:42.037Z,8.13
2018-02-08T13:30:08.547Z,5.70
2018-02-08T13:32:35.107Z,6.70
2018-02-08T13:35:01.656Z,8.60
2018-02-08T13:37:28.290Z,6.50
2018-02-08T13:42:58.108Z,6.20
2018-02-08T13:45:27.168Z,5.57
2018-02-08T13:48:11.728Z,3.83
2018-02-08T13:50:56.863Z,5.20
2018-02-08T13:53:29.367Z,3.83
2018-02-08T13:56:14.411Z,4.93
2018-02-08T13:58:48.101Z,2.90
2018-02-08T14:01:21.807Z,3.53
2018-02-08T14:03:48.884Z,3.47
2018-02-08T14:06:17.715Z,6.57
2018-02-08T14:08:47.275Z,2.93
2018-02-08T14:11:14.473Z,4.70
2018-02-08T14:13:41.585Z,4.13
2018-02-08T14:16:09.768Z,6.07
2018-02-08T14:18:36.895Z,5.77
2018-02-08T14:21:04.066Z,5.13
2018-02-08T14:23:31.256Z,5.27
2018-02-08T14:25:58.253Z,4.67
2018-02-08T14:28:27.557Z,2.90
2018-02-08T14:30:54.550Z,3.00
2018-02-08T14:33:21.604Z,3.63
2018-02-08T14:35:48.210Z,4.00
2018-02-08T14:38:16.705Z,3.47
2018-02-08T14:40:43.541Z,2.57
2018-02-08T14:43:14.302Z,3.93
2018-02-08T14:45:41.849Z,2.70
2018-02-08T14:48:08.273Z,5.07
2018-02-08T14:50:34.772Z,3.50
2018-02-08T14:53:01.166Z,4.30
2018-02-08T14:55:28.286Z,4.13
2018-02-08T14:57:54.769Z,7.50
2018-02-08T15:00:21.268Z,2.30
2018-02-08T15:02:47.640Z,4.60
2018-02-08T15:05:14.086Z,5.60
2018-02-08T15:07:40.833Z,8.07
2018-02-08T15:10:07.320Z,2.53
2018-02-08T15:12:33.719Z,4.20
2018-02-08T15:15:00.118Z,4.07
2018-02-08T15:17:26.624Z,7.97
2018-02-08T15:19:53.098Z,3.87
2018-02-08T15:22:19.520Z,3.57
2018-02-08T15:24:45.907Z,9.73
2018-02-08T15:27:12.559Z,3.17
2018-02-08T15:29:39.116Z,3.10
2018-02-08T15:32:05.562Z,6.17
2018-02-08T15:34:31.983Z,7.67
2018-02-08T15:36:58.399Z,4.00
2018-02-08T15:39:25.010Z,3.33
2018-02-08T15:41:51.428Z,5.20
2018-02-08T15:44:18.258Z,5.00
2018-02-08T15:46:44.776Z,4.07
2018-02-08T15:49:11.260Z,6.00
2018-02-08T15:51:37.729Z,3.93
2018-02-08T15:54:04.134Z,3.20
2018-02-08T15:56:30.655Z,5.43
2018-02-08T15:58:57.297Z,2.80
2018-02-08T16:01:23.812Z,5.77
2018-02-08T16:03:50.231Z,2.77
2018-02-08T16:06:16.709Z,2.17
2018-02-08T16:08:43.308Z,1.83
2018-02-08T16:11:09.786Z,2.67
2018-02-08T16:13:36.338Z,4.80
2018-02-08T16:16:02.764Z,2.17
2018-02-08T16:18:29.238Z,4.43
2018-02-08T16:20:55.804Z,4.03
2018-02-08T16:23:22.390Z,2.70
2018-02-08T16:25:48.831Z,4.60
2018-02-08T16:28:15.518Z,7.20
2018-02-08T16:30:42.035Z,2.63
2018-02-08T16:33:08.439Z,1.97
2018-02-08T16:35:34.890Z,6.00
2018-02-08T16:38:01.634Z,6.20
2018-02-08T16:40:28.097Z,2.47
2018-02-08T16:42:54.643Z,2.20
2018-02-08T16:45:21.582Z,5.30
2018-02-08T16:47:48.096Z,4.27
2018-02-08T16:50:14.556Z,2.80
2018-02-08T16:52:41.045Z,4.73
2018-02-08T16:55:07.547Z,1.30
2018-02-08T16:57:33.977Z,3.40
2018-02-08T17:00:00.589Z,2.97
2018-02-08T17:02:27.021Z,3.30
2018-02-08T17:04:53.595Z,3.23
2018-02-08T17:07:20.284Z,2.00
2018-02-08T17:09:47.009Z,1.67
2018-02-08T17:12:13.891Z,1.17
2018-02-08T17:14:40.645Z,1.53
2018-02-08T17:17:07.195Z,2.73
2018-02-08T17:19:34.185Z,1.93
2018-02-08T17:22:00.759Z,2.33
2018-02-08T17:24:27.461Z,2.17
2018-02-08T17:26:54.087Z,1.67
2018-02-08T17:29:20.985Z,2.33
2018-02-08T17:31:47.629Z,2.67
2018-02-08T17:34:14.147Z,4.10
2018-02-08T17:36:40.638Z,2.60
2018-02-08T17:39:07.170Z,3.17
2018-02-08T17:41:33.620Z,3.77
2018-02-08T17:44:00.534Z,2.13
2018-02-08T17:46:27.088Z,2.27
2018-02-08T17:48:53.852Z,3.27
2018-02-08T17:51:20.756Z,6.33
2018-02-08T17:53:47.569Z,3.37
2018-02-08T17:56:14.347Z,2.27
2018-02-08T17:58:41.099Z,3.63
2018-02-08T18:01:07.785Z,5.47
2018-02-08T18:03:34.371Z,3.17
2018-02-08T18:06:01.001Z,2.73
2018-02-08T18:08:27.586Z,4.47
2018-02-08T18:10:54.207Z,2.83
2018-02-08T18:13:20.647Z,3.80
2018-02-08T18:15:47.730Z,6.23
2018-02-08T18:18:14.293Z,1.77
2018-02-08T18:20:40.907Z,3.27
2018-02-08T18:23:07.391Z,2.63
2018-02-08T18:25:33.971Z,4.33
2018-02-08T18:28:00.410Z,2.47
2018-02-08T18:30:27.029Z,1.80
2018-02-08T18:32:53.594Z,1.63
2018-02-08T18:35:20.525Z,1.40
2018-02-08T18:37:47.163Z,3.13
2018-02-08T18:40:13.851Z,8.03
2018-02-08T18:42:40.344Z,4.97
2018-02-08T18:45:07.249Z,1.33
2018-02-08T18:47:33.848Z,1.23
2018-02-08T18:50:00.400Z,1.27
2018-02-08T18:52:27.405Z,2.30
2018-02-08T18:54:55.603Z,2.20
2018-02-08T18:57:23.047Z,2.00
2018-02-08T18:59:49.899Z,2.27
2018-02-08T19:02:16.421Z,1.20
2018-02-08T19:04:42.948Z,1.77
2018-02-08T19:07:09.468Z,3.20
2018-02-08T19:09:36.693Z,1.50
2018-02-08T19:12:03.201Z,4.47
2018-02-08T19:14:29.637Z,1.70
2018-02-08T19:16:56.109Z,2.27
2018-02-08T19:19:22.704Z,1.63
2018-02-08T19:21:49.267Z,3.00
2018-02-08T19:24:15.706Z,1.30
2018-02-08T19:26:42.140Z,2.13
2018-02-08T19:29:08.989Z,1.13
2018-02-08T19:31:35.586Z,4.70
2018-02-08T19:34:02.126Z,2.50
2018-02-08T19:36:28.576Z,1.60
2018-02-08T19:38:55.168Z,1.20
2018-02-08T19:41:21.690Z,1.47
2018-02-08T19:43:48.162Z,2.33
2018-02-08T19:46:14.722Z,1.37
2018-02-08T19:48:41.164Z,1.47
2018-02-08T19:51:07.811Z,3.70
2018-02-08T19:53:34.474Z,2.73
2018-02-08T19:56:01.464Z,2.67
2018-02-08T19:58:28.055Z,3.70
2018-02-08T20:00:54.654Z,2.70
2018-02-08T20:03:21.536Z,2.20
2018-02-08T20:05:48.543Z,1.90
2018-02-08T20:08:15.053Z,1.47
2018-02-08T20:10:41.919Z,1.20
2018-02-08T20:13:09.559Z,0.90
2018-02-08T20:15:36.371Z,1.53
2018-02-08T20:18:03.091Z,0.80
2018-02-08T20:20:30.238Z,3.40
2018-02-08T20:22:57.137Z,2.57
2018-02-08T20:25:29.838Z,0.77
2018-02-08T20:27:56.736Z,1.23
2018-02-08T20:30:23.438Z,2.63
2018-02-08T20:32:50.029Z,0.90
2018-02-08T20:35:16.732Z,1.80
2018-02-08T20:37:43.379Z,0.63
2018-02-08T20:40:18.840Z,1.17
2018-02-08T20:42:51.701Z,0.80
2018-02-08T20:45:18.247Z,2.37
2018-02-08T20:47:45.093Z,2.50
2018-02-08T20:50:11.735Z,1.00
2018-02-08T20:52:38.241Z,1.90
2018-02-08T20:55:04.668Z,1.53
2018-02-08T20:57:31.852Z,1.93
2018-02-08T20:59:58.585Z,1.00
2018-02-08T21:02:25.174Z,2.20
2018-02-08T21:04:51.615Z,1.40
2018-02-08T21:07:18.014Z,3.53
2018-02-08T21:09:44.519Z,2.60
2018-02-08T21:12:11.012Z,2.83
2018-02-08T21:14:37.486Z,1.20
2018-02-08T21:17:03.911Z,2.83
2018-02-08T21:19:30.314Z,3.70
2018-02-08T21:21:56.836Z,2.17
2018-02-08T21:24:23.243Z,3.37
2018-02-08T21:26:49.715Z,1.93
2018-02-08T21:29:16.179Z,2.17
2018-02-08T21:31:42.600Z,1.33
2018-02-08T21:34:09.345Z,2.80
2018-02-08T21:36:35.747Z,1.20
2018-02-08T21:39:02.284Z,2.07
2018-02-08T21:41:28.672Z,2.63
2018-02-08T21:43:55.059Z,6.13
2018-02-08T21:46:22.316Z,2.33
2018-02-08T21:48:48.760Z,3.13
2018-02-08T21:51:15.138Z,1.93
2018-02-08T21:53:41.553Z,2.03
2018-02-08T21:56:07.908Z,2.70
2018-02-08T21:58:34.356Z,2.83
2018-02-08T22:01:00.949Z,2.33
2018-02-08T22:03:27.359Z,3.13
2018-02-08T22:05:53.806Z,1.77
2018-02-08T22:08:20.259Z,1.80
2018-02-08T22:10:46.680Z,3.13
2018-02-08T22:13:13.151Z,3.47
2018-02-08T22:15:40.407Z,1.67
2018-02-08T22:18:06.832Z,5.37
2018-02-08T22:20:33.396Z,1.93
2018-02-08T22:22:59.803Z,4.10
2018-02-08T22:25:26.288Z,2.27
2018-02-08T22:27:52.768Z,1.47
2018-02-08T22:30:19.307Z,2.77
2018-02-08T22:32:45.725Z,3.43
2018-02-08T22:35:12.196Z,2.40
2018-02-08T22:37:38.755Z,2.60
2018-02-08T22:40:05.181Z,4.83
2018-02-08T22:42:31.556Z,3.80
2018-02-08T22:44:58.035Z,3.10
2018-02-08T22:47:24.617Z,3.47
2018-02-08T22:49:51.577Z,7.57
2018-02-08T22:52:18.740Z,2.53
2018-02-08T22:54:45.413Z,3.17
2018-02-08T22:57:11.947Z,2.33
2018-02-08T22:59:38.627Z,2.70
2018-02-08T23:02:05.794Z,2.00
2018-02-08T23:04:32.461Z,2.10
2018-02-08T23:06:59.221Z,2.73
2018-02-08T23:09:25.887Z,1.67
2018-02-08T23:11:52.595Z,2.63
2018-02-08T23:14:19.237Z,2.27
2018-02-08T23:16:45.910Z,1.53
2018-02-08T23:19:12.679Z,2.27
2018-02-08T23:21:39.733Z,3.13
2018-02-08T23:24:06.605Z,1.20
2018-02-08T23:26:33.323Z,1.20
2018-02-08T23:29:00.120Z,1.23
2018-02-08T23:31:26.616Z,2.10
2018-02-08T23:33:53.057Z,2.20
2018-02-08T23:36:19.536Z,2.20
2018-02-08T23:38:46.711Z,1.50
2018-02-08T23:41:13.223Z,1.13
2018-02-08T23:43:39.968Z,2.43
2018-02-08T23:46:06.364Z,1.00
2018-02-08T23:48:32.759Z,2.93
2018-02-08T23:50:59.360Z,1.80
2018-02-08T23:53:25.774Z,2.70
2018-02-08T23:55:52.302Z,2.60
2018-02-08T23:58:18.774Z,2.33
